Republic, Ohio
Current Conditions -  °F | °C
As of 10:52 AM on Sunday 21 Dec 2014 (Local Time) from KPCW Reporting Station
Clear Clear  
Wind Chill: -3°   Ceiling: Unl
Heat Index:   Visibility: 7mi
Dew Point: -3°   Wind: 5mph
Humidity: 79%   Direction: 180°S
Pressure: 30.32"   Gusts: NA
Location:  41.12°N, 83.02°W
Report Text: KPCW 211552Z AUTO 18004KT 7SM CLR 00/M03 A3032 RMK AO2 T00001033 $
Loading
Personal Weather Stations






























Interactive Weather Map New forecast layout! Learn more

10-Day Weather Forecast

Advertisements
Track Severe Weather on mobile